sensor_id;sensor_type;location;lat;lon;timestamp;P1;durP1;ratioP1;P2;durP2;ratioP2
56752;SDS011;42627;42.646;23.642;2022-08-01T00:01:50;10.43;;;6.78;;
56752;SDS011;42627;42.646;23.642;2022-08-01T00:03:51;10.77;;;6.82;;
56752;SDS011;42627;42.646;23.642;2022-08-01T00:05:51;11.27;;;7.47;;
56752;SDS011;42627;42.646;23.642;2022-08-01T00:07:52;9.43;;;7.18;;
56752;SDS011;42627;42.646;23.642;2022-08-01T00:10:12;9.15;;;6.13;;
56752;SDS011;42627;42.646;23.642;2022-08-01T00:17:16;9.73;;;6.32;;
56752;SDS011;42627;42.646;23.642;2022-08-01T00:19:17;9.60;;;6.65;;
56752;SDS011;42627;42.646;23.642;2022-08-01T00:21:17;11.48;;;7.18;;
56752;SDS011;42627;42.646;23.642;2022-08-01T00:23:18;11.70;;;7.97;;
56752;SDS011;42627;42.646;23.642;2022-08-01T00:25:19;11.45;;;6.70;;
56752;SDS011;42627;42.646;23.642;2022-08-01T00:27:19;11.32;;;7.43;;
56752;SDS011;42627;42.646;23.642;2022-08-01T00:29:35;11.15;;;7.35;;
56752;SDS011;42627;42.646;23.642;2022-08-01T00:33:36;11.07;;;7.10;;
56752;SDS011;42627;42.646;23.642;2022-08-01T00:35:37;13.57;;;7.80;;
56752;SDS011;42627;42.646;23.642;2022-08-01T00:37:37;11.60;;;6.88;;
56752;SDS011;42627;42.646;23.642;2022-08-01T00:44:53;10.85;;;6.97;;
56752;SDS011;42627;42.646;23.642;2022-08-01T00:46:54;11.13;;;7.18;;
56752;SDS011;42627;42.646;23.642;2022-08-01T00:48:54;12.57;;;8.82;;
56752;SDS011;42627;42.646;23.642;2022-08-01T00:50:55;11.00;;;6.95;;
56752;SDS011;42627;42.646;23.642;2022-08-01T00:52:56;10.85;;;6.28;;
56752;SDS011;42627;42.646;23.642;2022-08-01T00:54:59;10.35;;;6.35;;
56752;SDS011;42627;42.646;23.642;2022-08-01T00:56:59;10.82;;;7.30;;
56752;SDS011;42627;42.646;23.642;2022-08-01T00:59:18;11.57;;;7.75;;
56752;SDS011;42627;42.646;23.642;2022-08-01T01:01:22;11.52;;;6.55;;
56752;SDS011;42627;42.646;23.642;2022-08-01T01:03:23;10.75;;;7.13;;
56752;SDS011;42627;42.646;23.642;2022-08-01T01:05:24;10.52;;;7.25;;
56752;SDS011;42627;42.646;23.642;2022-08-01T01:15:33;12.18;;;7.60;;
56752;SDS011;42627;42.646;23.642;2022-08-01T01:17:44;11.23;;;7.65;;
56752;SDS011;42627;42.646;23.642;2022-08-01T01:19:54;11.88;;;7.30;;
56752;SDS011;42627;42.646;23.642;2022-08-01T01:26:43;9.98;;;6.70;;
56752;SDS011;42627;42.646;23.642;2022-08-01T01:28:59;11.85;;;6.78;;
56752;SDS011;42627;42.646;23.642;2022-08-01T01:31:14;11.80;;;7.35;;
56752;SDS011;42627;42.646;23.642;2022-08-01T01:33:16;7.65;;;5.40;;
56752;SDS011;42627;42.646;23.642;2022-08-01T01:35:27;10.73;;;6.78;;
56752;SDS011;42627;42.646;23.642;2022-08-01T01:37:31;9.93;;;6.40;;
56752;SDS011;42627;42.646;23.642;2022-08-01T01:39:48;10.20;;;6.57;;
56752;SDS011;42627;42.646;23.642;2022-08-01T01:42:44;10.38;;;6.43;;
56752;SDS011;42627;42.646;23.642;2022-08-01T01:45:09;11.40;;;7.05;;
56752;SDS011;42627;42.646;23.642;2022-08-01T01:47:11;10.23;;;6.30;;
56752;SDS011;42627;42.646;23.642;2022-08-01T01:49:13;10.70;;;6.97;;
56752;SDS011;42627;42.646;23.642;2022-08-01T01:51:15;10.10;;;6.53;;
56752;SDS011;42627;42.646;23.642;2022-08-01T01:53:18;10.85;;;6.47;;
56752;SDS011;42627;42.646;23.642;2022-08-01T01:55:21;9.70;;;6.53;;
56752;SDS011;42627;42.646;23.642;2022-08-01T01:57:25;10.98;;;6.22;;
56752;SDS011;42627;42.646;23.642;2022-08-01T01:59:39;10.05;;;6.43;;
56752;SDS011;42627;42.646;23.642;2022-08-01T02:01:41;13.75;;;7.30;;
56752;SDS011;42627;42.646;23.642;2022-08-01T02:03:44;9.27;;;6.40;;
56752;SDS011;42627;42.646;23.642;2022-08-01T02:05:46;8.77;;;5.80;;
56752;SDS011;42627;42.646;23.642;2022-08-01T02:07:48;9.38;;;6.55;;
56752;SDS011;42627;42.646;23.642;2022-08-01T02:12:46;9.90;;;6.32;;
56752;SDS011;42627;42.646;23.642;2022-08-01T02:14:50;9.63;;;6.60;;
56752;SDS011;42627;42.646;23.642;2022-08-01T02:16:53;11.50;;;6.82;;
56752;SDS011;42627;42.646;23.642;2022-08-01T02:18:57;8.77;;;5.97;;
56752;SDS011;42627;42.646;23.642;2022-08-01T02:20:59;9.57;;;5.72;;
56752;SDS011;42627;42.646;23.642;2022-08-01T02:23:07;8.85;;;6.07;;
56752;SDS011;42627;42.646;23.642;2022-08-01T02:25:53;11.15;;;6.65;;
56752;SDS011;42627;42.646;23.642;2022-08-01T02:31:59;10.48;;;6.25;;
56752;SDS011;42627;42.646;23.642;2022-08-01T02:34:03;12.00;;;6.55;;
56752;SDS011;42627;42.646;23.642;2022-08-01T02:36:06;11.00;;;6.47;;
56752;SDS011;42627;42.646;23.642;2022-08-01T02:41:11;12.48;;;6.97;;
56752;SDS011;42627;42.646;23.642;2022-08-01T02:43:42;9.88;;;5.97;;
56752;SDS011;42627;42.646;23.642;2022-08-01T02:45:47;8.95;;;5.80;;
56752;SDS011;42627;42.646;23.642;2022-08-01T02:47:54;10.70;;;6.32;;
56752;SDS011;42627;42.646;23.642;2022-08-01T02:49:59;9.13;;;6.20;;
56752;SDS011;42627;42.646;23.642;2022-08-01T02:52:03;9.45;;;6.47;;
56752;SDS011;42627;42.646;23.642;2022-08-01T02:54:07;10.30;;;6.10;;
56752;SDS011;42627;42.646;23.642;2022-08-01T02:56:11;9.98;;;6.10;;
56752;SDS011;42627;42.646;23.642;2022-08-01T02:58:18;10.35;;;6.32;;
56752;SDS011;42627;42.646;23.642;2022-08-01T03:00:23;8.48;;;6.03;;
56752;SDS011;42627;42.646;23.642;2022-08-01T03:02:26;9.93;;;6.57;;
56752;SDS011;42627;42.646;23.642;2022-08-01T03:04:29;10.15;;;5.97;;
56752;SDS011;42627;42.646;23.642;2022-08-01T03:06:32;11.13;;;5.90;;
56752;SDS011;42627;42.646;23.642;2022-08-01T03:15:53;9.25;;;5.97;;
56752;SDS011;42627;42.646;23.642;2022-08-01T03:17:56;9.43;;;6.18;;
56752;SDS011;42627;42.646;23.642;2022-08-01T03:19:58;10.23;;;6.80;;
56752;SDS011;42627;42.646;23.642;2022-08-01T03:22:02;9.70;;;6.28;;
56752;SDS011;42627;42.646;23.642;2022-08-01T03:24:09;12.55;;;6.63;;
56752;SDS011;42627;42.646;23.642;2022-08-01T03:26:11;8.88;;;5.55;;
56752;SDS011;42627;42.646;23.642;2022-08-01T03:28:21;8.85;;;5.47;;
56752;SDS011;42627;42.646;23.642;2022-08-01T03:30:23;8.20;;;5.18;;
56752;SDS011;42627;42.646;23.642;2022-08-01T03:32:25;8.40;;;5.07;;
56752;SDS011;42627;42.646;23.642;2022-08-01T03:34:28;8.63;;;5.15;;
56752;SDS011;42627;42.646;23.642;2022-08-01T03:36:29;8.02;;;5.15;;
56752;SDS011;42627;42.646;23.642;2022-08-01T03:43:45;7.70;;;4.32;;
56752;SDS011;42627;42.646;23.642;2022-08-01T03:45:49;8.05;;;4.65;;
56752;SDS011;42627;42.646;23.642;2022-08-01T03:47:52;9.82;;;5.50;;
56752;SDS011;42627;42.646;23.642;2022-08-01T03:49:58;8.23;;;4.30;;
56752;SDS011;42627;42.646;23.642;2022-08-01T03:52:01;7.57;;;4.40;;
56752;SDS011;42627;42.646;23.642;2022-08-01T03:54:04;5.75;;;3.63;;
56752;SDS011;42627;42.646;23.642;2022-08-01T03:56:07;8.13;;;3.75;;
56752;SDS011;42627;42.646;23.642;2022-08-01T03:58:25;7.40;;;4.40;;
56752;SDS011;42627;42.646;23.642;2022-08-01T04:00:26;6.22;;;3.97;;
56752;SDS011;42627;42.646;23.642;2022-08-01T04:02:28;6.53;;;4.25;;
56752;SDS011;42627;42.646;23.642;2022-08-01T04:04:30;6.80;;;4.40;;
56752;SDS011;42627;42.646;23.642;2022-08-01T04:06:31;8.63;;;5.05;;
56752;SDS011;42627;42.646;23.642;2022-08-01T04:13:32;7.25;;;4.38;;
56752;SDS011;42627;42.646;23.642;2022-08-01T04:15:33;8.05;;;4.93;;
56752;SDS011;42627;42.646;23.642;2022-08-01T04:17:34;9.00;;;4.65;;
56752;SDS011;42627;42.646;23.642;2022-08-01T04:19:34;7.15;;;4.53;;
56752;SDS011;42627;42.646;23.642;2022-08-01T04:21:35;7.43;;;4.70;;
56752;SDS011;42627;42.646;23.642;2022-08-01T04:23:36;9.02;;;5.20;;
56752;SDS011;42627;42.646;23.642;2022-08-01T04:25:39;8.30;;;4.88;;
56752;SDS011;42627;42.646;23.642;2022-08-01T04:27:51;7.22;;;4.25;;
56752;SDS011;42627;42.646;23.642;2022-08-01T04:29:54;8.18;;;4.97;;
56752;SDS011;42627;42.646;23.642;2022-08-01T04:31:58;7.40;;;4.65;;
56752;SDS011;42627;42.646;23.642;2022-08-01T04:34:02;6.72;;;4.28;;
56752;SDS011;42627;42.646;23.642;2022-08-01T04:36:04;7.88;;;4.10;;
56752;SDS011;42627;42.646;23.642;2022-08-01T04:41:02;7.88;;;4.22;;
56752;SDS011;42627;42.646;23.642;2022-08-01T04:43:07;7.40;;;4.78;;
56752;SDS011;42627;42.646;23.642;2022-08-01T04:45:08;7.35;;;4.60;;
56752;SDS011;42627;42.646;23.642;2022-08-01T04:47:09;8.05;;;4.57;;
56752;SDS011;42627;42.646;23.642;2022-08-01T04:49:11;7.32;;;4.32;;
56752;SDS011;42627;42.646;23.642;2022-08-01T04:51:13;7.03;;;4.40;;
56752;SDS011;42627;42.646;23.642;2022-08-01T04:53:18;8.38;;;4.78;;
56752;SDS011;42627;42.646;23.642;2022-08-01T04:55:21;7.80;;;4.00;;
56752;SDS011;42627;42.646;23.642;2022-08-01T04:57:27;6.47;;;4.35;;
56752;SDS011;42627;42.646;23.642;2022-08-01T04:59:28;6.82;;;4.28;;
56752;SDS011;42627;42.646;23.642;2022-08-01T05:01:41;8.90;;;4.38;;
56752;SDS011;42627;42.646;23.642;2022-08-01T05:03:42;7.43;;;4.85;;
56752;SDS011;42627;42.646;23.642;2022-08-01T05:05:43;7.05;;;3.95;;
56752;SDS011;42627;42.646;23.642;2022-08-01T05:07:56;7.20;;;4.22;;
56752;SDS011;42627;42.646;23.642;2022-08-01T05:10:03;7.45;;;4.25;;
56752;SDS011;42627;42.646;23.642;2022-08-01T05:12:10;6.88;;;4.60;;
56752;SDS011;42627;42.646;23.642;2022-08-01T05:14:10;11.32;;;4.85;;
56752;SDS011;42627;42.646;23.642;2022-08-01T05:16:11;7.60;;;4.30;;
56752;SDS011;42627;42.646;23.642;2022-08-01T05:18:12;6.15;;;4.00;;
56752;SDS011;42627;42.646;23.642;2022-08-01T05:20:13;6.45;;;3.50;;
56752;SDS011;42627;42.646;23.642;2022-08-01T05:22:13;6.55;;;4.22;;
56752;SDS011;42627;42.646;23.642;2022-08-01T05:24:14;6.90;;;3.90;;
56752;SDS011;42627;42.646;23.642;2022-08-01T05:26:15;6.05;;;3.83;;
56752;SDS011;42627;42.646;23.642;2022-08-01T05:28:15;6.47;;;3.60;;
56752;SDS011;42627;42.646;23.642;2022-08-01T05:30:16;5.80;;;3.88;;
56752;SDS011;42627;42.646;23.642;2022-08-01T05:32:17;5.53;;;3.53;;
56752;SDS011;42627;42.646;23.642;2022-08-01T05:34:18;7.00;;;3.25;;
56752;SDS011;42627;42.646;23.642;2022-08-01T05:36:19;5.75;;;3.35;;
56752;SDS011;42627;42.646;23.642;2022-08-01T05:38:20;5.22;;;2.90;;
56752;SDS011;42627;42.646;23.642;2022-08-01T05:40:21;6.03;;;3.33;;
56752;SDS011;42627;42.646;23.642;2022-08-01T05:47:10;5.38;;;2.75;;
56752;SDS011;42627;42.646;23.642;2022-08-01T05:49:11;5.55;;;3.42;;
56752;SDS011;42627;42.646;23.642;2022-08-01T05:51:11;4.55;;;2.53;;
56752;SDS011;42627;42.646;23.642;2022-08-01T05:53:12;6.00;;;3.15;;
56752;SDS011;42627;42.646;23.642;2022-08-01T05:55:12;4.80;;;3.15;;
56752;SDS011;42627;42.646;23.642;2022-08-01T05:57:22;5.72;;;3.53;;
56752;SDS011;42627;42.646;23.642;2022-08-01T05:59:23;5.00;;;2.45;;
56752;SDS011;42627;42.646;23.642;2022-08-01T06:01:23;4.55;;;2.80;;
56752;SDS011;42627;42.646;23.642;2022-08-01T06:03:24;5.18;;;3.25;;
56752;SDS011;42627;42.646;23.642;2022-08-01T06:05:25;4.85;;;3.03;;
56752;SDS011;42627;42.646;23.642;2022-08-01T06:07:25;4.82;;;3.20;;
56752;SDS011;42627;42.646;23.642;2022-08-01T06:09:26;5.18;;;2.75;;
56752;SDS011;42627;42.646;23.642;2022-08-01T06:11:39;5.47;;;3.13;;
56752;SDS011;42627;42.646;23.642;2022-08-01T06:13:40;4.72;;;2.65;;
56752;SDS011;42627;42.646;23.642;2022-08-01T06:15:40;6.68;;;3.60;;
56752;SDS011;42627;42.646;23.642;2022-08-01T06:17:41;6.10;;;2.97;;
56752;SDS011;42627;42.646;23.642;2022-08-01T06:19:41;5.25;;;3.15;;
56752;SDS011;42627;42.646;23.642;2022-08-01T06:26:58;5.47;;;2.78;;
56752;SDS011;42627;42.646;23.642;2022-08-01T06:28:59;5.20;;;2.70;;
56752;SDS011;42627;42.646;23.642;2022-08-01T06:30:59;4.68;;;2.63;;
56752;SDS011;42627;42.646;23.642;2022-08-01T06:33:00;5.03;;;2.70;;
56752;SDS011;42627;42.646;23.642;2022-08-01T06:35:01;4.50;;;2.92;;
56752;SDS011;42627;42.646;23.642;2022-08-01T06:37:01;4.95;;;2.50;;
56752;SDS011;42627;42.646;23.642;2022-08-01T06:39:02;4.60;;;2.40;;
56752;SDS011;42627;42.646;23.642;2022-08-01T06:41:03;6.72;;;2.80;;
56752;SDS011;42627;42.646;23.642;2022-08-01T06:43:04;5.95;;;2.75;;
56752;SDS011;42627;42.646;23.642;2022-08-01T06:45:08;5.78;;;2.70;;
56752;SDS011;42627;42.646;23.642;2022-08-01T06:47:09;4.97;;;2.97;;
56752;SDS011;42627;42.646;23.642;2022-08-01T06:49:10;3.53;;;2.15;;
56752;SDS011;42627;42.646;23.642;2022-08-01T06:51:11;3.47;;;2.10;;
56752;SDS011;42627;42.646;23.642;2022-08-01T06:53:15;3.07;;;1.93;;
56752;SDS011;42627;42.646;23.642;2022-08-01T06:55:16;4.20;;;2.42;;
56752;SDS011;42627;42.646;23.642;2022-08-01T07:02:38;3.75;;;1.90;;
56752;SDS011;42627;42.646;23.642;2022-08-01T07:04:39;2.45;;;1.50;;
56752;SDS011;42627;42.646;23.642;2022-08-01T07:06:40;2.60;;;1.63;;
56752;SDS011;42627;42.646;23.642;2022-08-01T07:08:41;2.58;;;1.45;;
56752;SDS011;42627;42.646;23.642;2022-08-01T07:10:47;2.55;;;1.50;;
56752;SDS011;42627;42.646;23.642;2022-08-01T07:12:47;2.90;;;1.38;;
56752;SDS011;42627;42.646;23.642;2022-08-01T07:14:48;2.55;;;1.40;;
56752;SDS011;42627;42.646;23.642;2022-08-01T07:16:49;2.75;;;1.60;;
56752;SDS011;42627;42.646;23.642;2022-08-01T07:18:50;5.75;;;1.48;;
56752;SDS011;42627;42.646;23.642;2022-08-01T07:20:51;3.40;;;1.60;;
56752;SDS011;42627;42.646;23.642;2022-08-01T07:22:52;3.00;;;1.80;;
56752;SDS011;42627;42.646;23.642;2022-08-01T07:24:52;2.13;;;1.38;;
56752;SDS011;42627;42.646;23.642;2022-08-01T07:26:53;2.45;;;1.30;;
56752;SDS011;42627;42.646;23.642;2022-08-01T07:28:54;3.10;;;1.83;;
56752;SDS011;42627;42.646;23.642;2022-08-01T07:30:55;4.05;;;1.90;;
56752;SDS011;42627;42.646;23.642;2022-08-01T07:32:56;4.43;;;1.58;;
56752;SDS011;42627;42.646;23.642;2022-08-01T07:34:57;3.85;;;1.63;;
56752;SDS011;42627;42.646;23.642;2022-08-01T07:36:58;2.85;;;1.65;;
56752;SDS011;42627;42.646;23.642;2022-08-01T07:38:58;3.55;;;1.33;;
56752;SDS011;42627;42.646;23.642;2022-08-01T07:40:59;3.67;;;1.30;;
56752;SDS011;42627;42.646;23.642;2022-08-01T07:43:00;2.78;;;1.65;;
56752;SDS011;42627;42.646;23.642;2022-08-01T07:45:01;2.65;;;1.40;;
56752;SDS011;42627;42.646;23.642;2022-08-01T07:47:02;4.50;;;1.50;;
56752;SDS011;42627;42.646;23.642;2022-08-01T07:49:03;4.30;;;1.83;;
56752;SDS011;42627;42.646;23.642;2022-08-01T07:51:04;2.70;;;1.60;;
56752;SDS011;42627;42.646;23.642;2022-08-01T07:53:05;2.95;;;1.65;;
56752;SDS011;42627;42.646;23.642;2022-08-01T07:55:06;3.03;;;1.50;;
56752;SDS011;42627;42.646;23.642;2022-08-01T07:57:07;2.30;;;1.42;;
56752;SDS011;42627;42.646;23.642;2022-08-01T07:59:09;2.25;;;1.52;;
56752;SDS011;42627;42.646;23.642;2022-08-01T08:01:10;4.05;;;1.75;;
56752;SDS011;42627;42.646;23.642;2022-08-01T08:03:11;2.75;;;1.40;;
56752;SDS011;42627;42.646;23.642;2022-08-01T08:05:11;2.75;;;1.60;;
56752;SDS011;42627;42.646;23.642;2022-08-01T08:07:12;4.32;;;2.13;;
56752;SDS011;42627;42.646;23.642;2022-08-01T08:09:13;2.60;;;1.73;;
56752;SDS011;42627;42.646;23.642;2022-08-01T08:11:15;3.65;;;1.50;;
56752;SDS011;42627;42.646;23.642;2022-08-01T08:13:16;2.60;;;1.50;;
56752;SDS011;42627;42.646;23.642;2022-08-01T08:15:17;3.08;;;1.50;;
56752;SDS011;42627;42.646;23.642;2022-08-01T08:17:17;2.00;;;1.25;;
56752;SDS011;42627;42.646;23.642;2022-08-01T08:19:18;3.00;;;1.45;;
56752;SDS011;42627;42.646;23.642;2022-08-01T08:21:21;2.50;;;1.33;;
56752;SDS011;42627;42.646;23.642;2022-08-01T08:23:25;2.53;;;1.63;;
56752;SDS011;42627;42.646;23.642;2022-08-01T08:25:50;2.63;;;1.95;;
56752;SDS011;42627;42.646;23.642;2022-08-01T08:27:51;2.25;;;1.40;;
56752;SDS011;42627;42.646;23.642;2022-08-01T08:29:52;2.13;;;1.38;;
56752;SDS011;42627;42.646;23.642;2022-08-01T08:31:55;3.85;;;1.70;;
56752;SDS011;42627;42.646;23.642;2022-08-01T08:33:57;1.97;;;1.37;;
56752;SDS011;42627;42.646;23.642;2022-08-01T08:35:58;2.78;;;1.40;;
56752;SDS011;42627;42.646;23.642;2022-08-01T08:37:59;2.33;;;1.35;;
56752;SDS011;42627;42.646;23.642;2022-08-01T08:40:00;2.92;;;1.55;;
56752;SDS011;42627;42.646;23.642;2022-08-01T08:42:04;3.53;;;1.58;;
56752;SDS011;42627;42.646;23.642;2022-08-01T08:44:06;3.05;;;1.40;;
56752;SDS011;42627;42.646;23.642;2022-08-01T08:46:08;2.88;;;1.40;;
56752;SDS011;42627;42.646;23.642;2022-08-01T08:48:12;2.78;;;1.55;;
56752;SDS011;42627;42.646;23.642;2022-08-01T08:50:13;3.45;;;1.52;;
56752;SDS011;42627;42.646;23.642;2022-08-01T08:52:14;4.05;;;1.33;;
56752;SDS011;42627;42.646;23.642;2022-08-01T08:54:18;4.90;;;1.60;;
56752;SDS011;42627;42.646;23.642;2022-08-01T08:56:22;2.10;;;1.30;;
56752;SDS011;42627;42.646;23.642;2022-08-01T08:58:25;2.42;;;1.50;;
56752;SDS011;42627;42.646;23.642;2022-08-01T09:00:26;2.42;;;1.27;;
56752;SDS011;42627;42.646;23.642;2022-08-01T09:02:27;3.15;;;1.30;;
56752;SDS011;42627;42.646;23.642;2022-08-01T09:04:28;2.83;;;1.50;;
56752;SDS011;42627;42.646;23.642;2022-08-01T09:06:29;1.60;;;1.00;;
56752;SDS011;42627;42.646;23.642;2022-08-01T09:08:30;2.67;;;1.30;;
56752;SDS011;42627;42.646;23.642;2022-08-01T09:10:39;2.40;;;1.40;;
56752;SDS011;42627;42.646;23.642;2022-08-01T09:12:39;4.38;;;1.85;;
56752;SDS011;42627;42.646;23.642;2022-08-01T09:15:00;2.30;;;1.30;;
56752;SDS011;42627;42.646;23.642;2022-08-01T09:17:10;4.32;;;1.90;;
56752;SDS011;42627;42.646;23.642;2022-08-01T09:19:13;2.78;;;1.52;;
56752;SDS011;42627;42.646;23.642;2022-08-01T09:23:51;2.60;;;1.27;;
56752;SDS011;42627;42.646;23.642;2022-08-01T09:26:31;2.45;;;1.67;;
56752;SDS011;42627;42.646;23.642;2022-08-01T09:28:34;2.87;;;1.50;;
56752;SDS011;42627;42.646;23.642;2022-08-01T09:30:38;1.88;;;1.30;;
56752;SDS011;42627;42.646;23.642;2022-08-01T09:32:52;2.45;;;1.40;;
56752;SDS011;42627;42.646;23.642;2022-08-01T09:34:56;3.92;;;1.38;;
56752;SDS011;42627;42.646;23.642;2022-08-01T09:36:59;2.83;;;1.20;;
56752;SDS011;42627;42.646;23.642;2022-08-01T09:39:05;3.78;;;1.58;;
56752;SDS011;42627;42.646;23.642;2022-08-01T09:41:15;1.65;;;1.10;;
56752;SDS011;42627;42.646;23.642;2022-08-01T09:43:17;1.77;;;1.20;;
56752;SDS011;42627;42.646;23.642;2022-08-01T09:45:31;2.17;;;1.30;;
56752;SDS011;42627;42.646;23.642;2022-08-01T09:47:39;2.30;;;1.35;;
56752;SDS011;42627;42.646;23.642;2022-08-01T09:49:40;2.28;;;1.05;;
56752;SDS011;42627;42.646;23.642;2022-08-01T09:54:33;3.08;;;1.15;;
56752;SDS011;42627;42.646;23.642;2022-08-01T09:56:39;3.40;;;1.55;;
56752;SDS011;42627;42.646;23.642;2022-08-01T09:59:03;2.22;;;1.35;;
56752;SDS011;42627;42.646;23.642;2022-08-01T10:01:05;2.92;;;1.55;;
56752;SDS011;42627;42.646;23.642;2022-08-01T10:03:24;4.47;;;2.03;;
56752;SDS011;42627;42.646;23.642;2022-08-01T10:05:32;2.67;;;1.80;;
56752;SDS011;42627;42.646;23.642;2022-08-01T10:07:35;2.22;;;1.40;;
56752;SDS011;42627;42.646;23.642;2022-08-01T10:11:47;2.67;;;1.48;;
56752;SDS011;42627;42.646;23.642;2022-08-01T10:13:47;2.92;;;1.40;;
56752;SDS011;42627;42.646;23.642;2022-08-01T10:15:48;2.42;;;1.20;;
56752;SDS011;42627;42.646;23.642;2022-08-01T10:19:52;2.38;;;1.50;;
56752;SDS011;42627;42.646;23.642;2022-08-01T10:24:30;2.65;;;1.27;;
56752;SDS011;42627;42.646;23.642;2022-08-01T10:26:32;2.42;;;1.35;;
56752;SDS011;42627;42.646;23.642;2022-08-01T10:28:34;2.28;;;1.58;;
56752;SDS011;42627;42.646;23.642;2022-08-01T10:30:36;3.15;;;1.70;;
56752;SDS011;42627;42.646;23.642;2022-08-01T10:32:38;2.40;;;1.35;;
56752;SDS011;42627;42.646;23.642;2022-08-01T10:34:42;2.22;;;1.50;;
56752;SDS011;42627;42.646;23.642;2022-08-01T10:36:43;1.70;;;1.10;;
56752;SDS011;42627;42.646;23.642;2022-08-01T10:38:45;4.78;;;1.50;;
56752;SDS011;42627;42.646;23.642;2022-08-01T10:40:47;1.83;;;1.20;;
56752;SDS011;42627;42.646;23.642;2022-08-01T10:42:47;2.70;;;1.58;;
56752;SDS011;42627;42.646;23.642;2022-08-01T10:44:48;2.38;;;1.50;;
56752;SDS011;42627;42.646;23.642;2022-08-01T10:46:52;2.97;;;1.40;;
56752;SDS011;42627;42.646;23.642;2022-08-01T10:49:01;4.43;;;1.27;;
56752;SDS011;42627;42.646;23.642;2022-08-01T10:51:22;2.80;;;1.58;;
56752;SDS011;42627;42.646;23.642;2022-08-01T10:56:04;2.50;;;1.40;;
56752;SDS011;42627;42.646;23.642;2022-08-01T10:58:07;2.47;;;1.63;;
56752;SDS011;42627;42.646;23.642;2022-08-01T11:00:08;3.92;;;1.75;;
56752;SDS011;42627;42.646;23.642;2022-08-01T11:02:28;3.13;;;1.75;;
56752;SDS011;42627;42.646;23.642;2022-08-01T11:11:20;2.25;;;1.48;;
56752;SDS011;42627;42.646;23.642;2022-08-01T11:14:00;3.00;;;1.95;;
56752;SDS011;42627;42.646;23.642;2022-08-01T11:16:25;2.38;;;1.50;;
56752;SDS011;42627;42.646;23.642;2022-08-01T11:18:30;2.72;;;1.40;;
56752;SDS011;42627;42.646;23.642;2022-08-01T11:20:43;2.30;;;1.50;;
56752;SDS011;42627;42.646;23.642;2022-08-01T11:25:18;2.30;;;1.30;;
56752;SDS011;42627;42.646;23.642;2022-08-01T11:27:20;2.83;;;1.85;;
56752;SDS011;42627;42.646;23.642;2022-08-01T11:29:28;2.33;;;1.52;;
56752;SDS011;42627;42.646;23.642;2022-08-01T11:31:31;2.95;;;1.80;;
56752;SDS011;42627;42.646;23.642;2022-08-01T11:38:22;3.42;;;1.50;;
56752;SDS011;42627;42.646;23.642;2022-08-01T11:40:25;4.72;;;1.70;;
56752;SDS011;42627;42.646;23.642;2022-08-01T11:42:29;2.97;;;1.50;;
56752;SDS011;42627;42.646;23.642;2022-08-01T11:44:29;3.35;;;2.05;;
56752;SDS011;42627;42.646;23.642;2022-08-01T11:47:00;3.38;;;1.60;;
56752;SDS011;42627;42.646;23.642;2022-08-01T11:51:42;2.33;;;1.63;;
56752;SDS011;42627;42.646;23.642;2022-08-01T11:53:53;3.28;;;1.67;;
56752;SDS011;42627;42.646;23.642;2022-08-01T11:55:53;4.53;;;2.00;;
56752;SDS011;42627;42.646;23.642;2022-08-01T11:58:01;3.35;;;2.15;;
56752;SDS011;42627;42.646;23.642;2022-08-01T12:02:21;2.60;;;1.90;;
56752;SDS011;42627;42.646;23.642;2022-08-01T12:04:25;2.97;;;1.75;;
56752;SDS011;42627;42.646;23.642;2022-08-01T12:06:27;2.15;;;1.55;;
56752;SDS011;42627;42.646;23.642;2022-08-01T12:08:32;2.90;;;2.03;;
56752;SDS011;42627;42.646;23.642;2022-08-01T12:10:34;2.58;;;1.80;;
56752;SDS011;42627;42.646;23.642;2022-08-01T12:12:59;2.45;;;1.65;;
56752;SDS011;42627;42.646;23.642;2022-08-01T12:15:04;2.90;;;1.98;;
56752;SDS011;42627;42.646;23.642;2022-08-01T12:17:08;2.50;;;1.65;;
56752;SDS011;42627;42.646;23.642;2022-08-01T12:24:28;2.65;;;1.80;;
56752;SDS011;42627;42.646;23.642;2022-08-01T12:26:40;5.50;;;1.92;;
56752;SDS011;42627;42.646;23.642;2022-08-01T12:28:41;3.30;;;1.70;;
56752;SDS011;42627;42.646;23.642;2022-08-01T12:30:42;2.97;;;1.90;;
56752;SDS011;42627;42.646;23.642;2022-08-01T12:32:46;2.78;;;1.83;;
56752;SDS011;42627;42.646;23.642;2022-08-01T12:36:48;3.45;;;1.80;;
56752;SDS011;42627;42.646;23.642;2022-08-01T12:38:52;2.45;;;1.70;;
56752;SDS011;42627;42.646;23.642;2022-08-01T12:40:53;3.40;;;1.83;;
56752;SDS011;42627;42.646;23.642;2022-08-01T12:42:56;2.80;;;1.70;;
56752;SDS011;42627;42.646;23.642;2022-08-01T12:45:02;3.80;;;2.17;;
56752;SDS011;42627;42.646;23.642;2022-08-01T12:47:06;3.42;;;1.98;;
56752;SDS011;42627;42.646;23.642;2022-08-01T12:49:07;2.08;;;1.50;;
56752;SDS011;42627;42.646;23.642;2022-08-01T12:51:11;3.45;;;1.98;;
56752;SDS011;42627;42.646;23.642;2022-08-01T12:53:12;3.20;;;2.00;;
56752;SDS011;42627;42.646;23.642;2022-08-01T12:55:45;4.15;;;1.85;;
56752;SDS011;42627;42.646;23.642;2022-08-01T12:58:04;3.03;;;2.20;;
56752;SDS011;42627;42.646;23.642;2022-08-01T13:02:30;3.42;;;2.10;;
56752;SDS011;42627;42.646;23.642;2022-08-01T13:04:32;4.90;;;2.25;;
56752;SDS011;42627;42.646;23.642;2022-08-01T13:06:53;4.90;;;2.25;;
56752;SDS011;42627;42.646;23.642;2022-08-01T13:09:04;3.67;;;2.10;;
56752;SDS011;42627;42.646;23.642;2022-08-01T13:11:14;2.67;;;1.95;;
56752;SDS011;42627;42.646;23.642;2022-08-01T13:13:36;2.97;;;1.85;;
56752;SDS011;42627;42.646;23.642;2022-08-01T13:15:39;3.53;;;2.03;;
56752;SDS011;42627;42.646;23.642;2022-08-01T13:17:43;3.35;;;2.15;;
56752;SDS011;42627;42.646;23.642;2022-08-01T13:19:44;2.88;;;2.08;;
56752;SDS011;42627;42.646;23.642;2022-08-01T13:21:53;3.35;;;2.10;;
56752;SDS011;42627;42.646;23.642;2022-08-01T13:26:43;3.63;;;2.20;;
56752;SDS011;42627;42.646;23.642;2022-08-01T13:29:03;3.13;;;2.10;;
56752;SDS011;42627;42.646;23.642;2022-08-01T13:31:06;3.70;;;2.05;;
56752;SDS011;42627;42.646;23.642;2022-08-01T13:33:07;3.17;;;2.10;;
56752;SDS011;42627;42.646;23.642;2022-08-01T13:35:09;2.88;;;1.90;;
56752;SDS011;42627;42.646;23.642;2022-08-01T13:37:12;3.85;;;2.72;;
56752;SDS011;42627;42.646;23.642;2022-08-01T13:39:13;5.68;;;2.30;;
56752;SDS011;42627;42.646;23.642;2022-08-01T13:41:35;3.58;;;2.10;;
56752;SDS011;42627;42.646;23.642;2022-08-01T13:43:35;3.35;;;2.05;;
56752;SDS011;42627;42.646;23.642;2022-08-01T13:45:36;2.83;;;1.90;;
56752;SDS011;42627;42.646;23.642;2022-08-01T13:47:38;2.78;;;1.75;;
56752;SDS011;42627;42.646;23.642;2022-08-01T13:49:39;3.78;;;1.92;;
56752;SDS011;42627;42.646;23.642;2022-08-01T13:51:40;4.10;;;2.00;;
56752;SDS011;42627;42.646;23.642;2022-08-01T13:53:40;2.55;;;1.70;;
56752;SDS011;42627;42.646;23.642;2022-08-01T13:55:41;2.45;;;1.70;;
56752;SDS011;42627;42.646;23.642;2022-08-01T13:57:42;2.75;;;1.75;;
56752;SDS011;42627;42.646;23.642;2022-08-01T13:59:43;3.15;;;2.10;;
56752;SDS011;42627;42.646;23.642;2022-08-01T14:01:43;2.92;;;1.85;;
56752;SDS011;42627;42.646;23.642;2022-08-01T14:03:49;2.50;;;1.85;;
56752;SDS011;42627;42.646;23.642;2022-08-01T14:05:51;4.03;;;1.80;;
56752;SDS011;42627;42.646;23.642;2022-08-01T14:07:51;3.17;;;1.83;;
56752;SDS011;42627;42.646;23.642;2022-08-01T14:09:52;2.45;;;1.75;;
56752;SDS011;42627;42.646;23.642;2022-08-01T14:11:53;2.58;;;1.83;;
56752;SDS011;42627;42.646;23.642;2022-08-01T14:13:54;3.88;;;2.00;;
56752;SDS011;42627;42.646;23.642;2022-08-01T14:15:55;2.97;;;1.80;;